Time;durP1;ratioP1;P1;durP2;ratioP2;P2;SDS_P1;SDS_P2;PMS_P1;PMS_P2;Temp;Humidity;BMP_temperature;BMP_pressure;BME280_temperature;BME280_humidity;BME280_pressure;Samples;Min_cycle;Max_cycle;Signal;HPM_P1;HPM_P2
2021/05/08 00:00:10;;;;;;;15.50;6.57;;;;;;;2.75;67.01;98574.63;5018541;28;20104;-78
2021/05/08 00:02:36;;;;;;;11.45;5.60;;;;;;;2.76;68.00;98584.41;5018475;28;20013;-75
2021/05/08 00:05:02;;;;;;;15.40;6.38;;;;;;;2.75;67.92;98582.75;5059076;28;20992;-77
2021/05/08 00:07:27;;;;;;;13.55;6.40;;;;;;;2.76;67.34;98589.81;5027293;28;20546;-76
2021/05/08 00:09:52;;;;;;;12.88;6.18;;;;;;;2.78;67.20;98582.28;5027423;28;20017;-76
2021/05/08 00:12:18;;;;;;;13.77;6.38;;;;;;;2.78;67.02;98590.41;5027525;28;20029;-77
2021/05/08 00:14:43;;;;;;;13.10;6.35;;;;;;;2.79;67.29;98593.91;5041858;28;20025;-76
2021/05/08 00:17:09;;;;;;;12.52;5.97;;;;;;;2.79;67.50;98607.47;5052031;28;20057;-77
2021/05/08 00:19:34;;;;;;;14.02;6.07;;;;;;;2.79;66.88;98602.03;5052843;28;20099;-76
2021/05/08 00:22:00;;;;;;;15.80;6.93;;;;;;;2.84;67.58;98610.28;5052604;28;20029;-76
2021/05/08 00:24:25;;;;;;;16.95;7.15;;;;;;;2.81;67.55;98611.59;5052508;28;20032;-76
2021/05/08 00:26:51;;;;;;;11.13;5.88;;;;;;;2.78;67.09;98619.34;5052812;28;20112;-76
2021/05/08 00:29:17;;;;;;;10.73;5.13;;;;;;;2.76;66.88;98611.50;5051043;28;20120;-76
2021/05/08 00:31:42;;;;;;;8.77;4.85;;;;;;;2.74;67.53;98619.03;5051924;28;20802;-77
2021/05/08 00:34:07;;;;;;;10.68;5.90;;;;;;;2.71;67.56;98614.09;5052021;28;20028;-76
2021/05/08 00:36:36;;;;;;;10.65;5.85;;;;;;;2.70;67.88;98625.16;5052023;28;20094;-76
2021/05/08 00:39:04;;;;;;;10.88;6.47;;;;;;;2.70;67.72;98627.84;5049985;28;20040;-77
2021/05/08 00:41:30;;;;;;;14.80;6.65;;;;;;;2.67;67.46;98632.69;5051789;28;20458;-76
2021/05/08 00:43:57;;;;;;;11.82;6.57;;;;;;;2.63;67.52;98628.00;5051602;28;20037;-77
2021/05/08 00:46:26;;;;;;;11.27;6.40;;;;;;;2.60;67.08;98628.47;5051363;28;20028;-77
2021/05/08 00:48:54;;;;;;;13.02;6.60;;;;;;;2.58;67.56;98631.44;5052027;28;20052;-77
2021/05/08 00:51:19;;;;;;;11.82;6.22;;;;;;;2.59;67.51;98638.50;5052015;28;20025;-77
2021/05/08 00:53:45;;;;;;;13.13;5.53;;;;;;;2.64;67.56;98635.91;5050640;28;20354;-76
2021/05/08 00:56:11;;;;;;;12.15;5.85;;;;;;;2.67;67.96;98634.59;5052331;28;20374;-76
2021/05/08 00:58:37;;;;;;;10.93;5.88;;;;;;;2.69;67.31;98635.19;5052788;28;20505;-76
2021/05/08 01:01:02;;;;;;;10.88;6.22;;;;;;;2.66;68.09;98635.66;5052036;28;20025;-77
2021/05/08 01:03:28;;;;;;;15.30;6.55;;;;;;;2.64;68.21;98632.38;5052256;28;20458;-77
2021/05/08 01:05:54;;;;;;;12.15;6.30;;;;;;;2.64;67.49;98640.50;5052022;28;20028;-76
2021/05/08 01:08:20;;;;;;;10.27;5.82;;;;;;;2.65;68.45;98640.22;5051763;28;20017;-76
2021/05/08 01:10:45;;;;;;;13.18;6.60;;;;;;;2.63;67.95;98639.69;5051662;28;20405;-76
2021/05/08 01:13:11;;;;;;;12.00;6.45;;;;;;;2.61;67.84;98649.09;5051731;28;20036;-74
2021/05/08 01:15:37;;;;;;;12.27;6.88;;;;;;;2.60;68.04;98655.56;5053021;28;20029;-76
2021/05/08 01:18:03;;;;;;;12.98;7.07;;;;;;;2.57;68.33;98654.16;5048569;28;20799;-76
2021/05/08 01:20:29;;;;;;;11.00;6.15;;;;;;;2.55;68.16;98656.28;5050952;28;20067;-76
2021/05/08 01:22:54;;;;;;;15.45;7.93;;;;;;;2.53;68.14;98653.81;5050850;28;20032;-76
2021/05/08 01:25:22;;;;;;;16.15;9.18;;;;;;;2.49;68.80;98655.34;5051049;28;20029;-77
2021/05/08 01:27:50;;;;;;;53.97;23.17;;;;;;;2.49;68.17;98657.25;5052062;28;20021;-76
2021/05/08 01:30:18;;;;;;;19.75;9.40;;;;;;;2.46;68.55;98663.94;5050652;28;20021;-76
2021/05/08 01:32:44;;;;;;;17.20;7.90;;;;;;;2.45;68.73;98661.47;5048679;28;20021;-76
2021/05/08 01:35:10;;;;;;;10.57;6.20;;;;;;;2.43;68.54;98663.59;5051068;28;20021;-76
2021/05/08 01:37:36;;;;;;;12.65;6.05;;;;;;;2.41;68.63;98671.13;5050772;28;20016;-76
2021/05/08 01:40:08;;;;;;;15.90;6.55;;;;;;;2.37;68.40;98671.63;5049272;28;20489;-76
2021/05/08 01:42:34;;;;;;;13.30;6.75;;;;;;;2.39;68.27;98674.09;5050848;28;20771;-76
2021/05/08 01:45:17;;;;;;;12.45;6.60;;;;;;;2.44;68.48;98674.22;5051465;28;20040;-76
2021/05/08 01:47:43;;;;;;;14.30;6.57;;;;;;;2.52;68.80;98681.13;5048574;28;20032;-75
2021/05/08 01:50:12;;;;;;;14.05;6.55;;;;;;;2.61;68.80;98685.13;5050624;28;20029;-75
2021/05/08 01:52:38;;;;;;;13.52;6.50;;;;;;;2.71;69.05;98683.69;5051448;28;20033;-75
2021/05/08 01:55:10;;;;;;;14.93;6.38;;;;;;;2.79;68.78;98683.31;5050469;28;20055;-75
2021/05/08 01:57:45;;;;;;;13.38;6.60;;;;;;;2.87;69.21;98685.66;5049169;28;20021;-76
2021/05/08 02:00:34;;;;;;;14.63;6.63;;;;;;;2.92;69.30;98691.16;5049254;28;20067;-77
2021/05/08 02:03:00;;;;;;;16.63;7.18;;;;;;;2.97;68.67;98685.84;5050231;28;20108;-76
2021/05/08 02:05:31;;;;;;;15.02;6.75;;;;;;;2.99;68.42;98680.19;5049233;28;20069;-75
2021/05/08 02:08:01;;;;;;;10.52;5.28;;;;;;;3.03;68.98;98688.66;5050522;28;20021;-76
2021/05/08 02:10:26;;;;;;;11.57;5.15;;;;;;;3.06;68.41;98685.44;5048280;28;20024;-76
2021/05/08 02:12:51;;;;;;;9.90;5.10;;;;;;;3.10;68.51;98683.91;5049280;28;20017;-76
2021/05/08 02:15:18;;;;;;;8.02;4.18;;;;;;;3.15;68.09;98689.44;5050428;28;20048;-76
2021/05/08 02:17:44;;;;;;;9.40;4.57;;;;;;;3.17;68.25;98686.50;5050290;28;20397;-76
2021/05/08 02:20:14;;;;;;;9.13;4.70;;;;;;;3.15;68.50;98686.72;5050226;28;20040;-76
2021/05/08 02:22:40;;;;;;;10.35;4.93;;;;;;;3.17;68.63;98695.44;5051966;28;20082;-76
2021/05/08 02:25:07;;;;;;;10.70;5.70;;;;;;;3.16;67.96;98685.66;5049893;28;20028;-76
2021/05/08 02:27:36;;;;;;;15.13;6.68;;;;;;;3.17;67.94;98684.59;5050023;28;20025;-75
2021/05/08 02:30:05;;;;;;;16.63;7.28;;;;;;;3.18;67.50;98691.66;5049972;28;20013;-75
2021/05/08 02:32:30;;;;;;;10.93;5.57;;;;;;;3.19;67.38;98695.19;5050052;28;20074;-75
2021/05/08 02:34:56;;;;;;;7.95;5.15;;;;;;;3.19;67.20;98696.00;5049692;28;20028;-75
2021/05/08 02:37:21;;;;;;;5.88;3.85;;;;;;;3.20;67.84;98703.06;5049556;28;20162;-75
2021/05/08 02:39:46;;;;;;;8.23;4.93;;;;;;;3.19;68.04;98695.19;5049823;28;20025;-75
2021/05/08 02:42:12;;;;;;;11.35;5.22;;;;;;;3.20;67.41;98705.78;5049773;28;20537;-76
2021/05/08 02:44:38;;;;;;;11.55;5.97;;;;;;;3.19;67.99;98706.03;5049679;28;20074;-76
2021/05/08 02:47:03;;;;;;;14.23;5.97;;;;;;;3.12;68.03;98711.59;5050169;28;20070;-76
2021/05/08 02:49:28;;;;;;;10.73;5.75;;;;;;;3.08;67.20;98710.41;5049707;28;20032;-75
2021/05/08 02:51:54;;;;;;;11.45;6.13;;;;;;;3.03;67.50;98708.44;5050351;28;20041;-75
2021/05/08 02:54:19;;;;;;;12.90;6.55;;;;;;;2.98;67.22;98706.47;5050140;28;20466;-76
2021/05/08 02:56:44;;;;;;;13.40;6.38;;;;;;;2.92;67.67;98712.00;5049986;28;20079;-76
2021/05/08 02:59:10;;;;;;;13.48;5.43;;;;;;;2.87;67.55;98707.31;5049846;28;20061;-75
2021/05/08 03:01:35;;;;;;;11.65;5.82;;;;;;;2.83;67.31;98708.84;5049838;28;20021;-76
2021/05/08 03:04:00;;;;;;;10.32;5.35;;;;;;;2.78;67.10;98717.72;5050141;28;20027;-76
2021/05/08 03:06:26;;;;;;;12.57;5.90;;;;;;;2.78;67.52;98717.72;5049767;28;20466;-76
2021/05/08 03:08:51;;;;;;;10.65;5.30;;;;;;;2.77;68.04;98723.34;5049882;28;20351;-76
2021/05/08 03:11:16;;;;;;;9.27;4.93;;;;;;;2.78;67.91;98728.53;5050222;28;20029;-75
2021/05/08 03:13:42;;;;;;;8.80;4.70;;;;;;;2.79;67.63;98724.78;5049749;28;20013;-75
2021/05/08 03:16:07;;;;;;;8.95;5.40;;;;;;;2.81;67.54;98728.06;5051774;28;20029;-75
2021/05/08 03:18:33;;;;;;;9.25;4.68;;;;;;;2.88;67.65;98735.22;5053090;28;20060;-76
2021/05/08 03:20:58;;;;;;;11.63;5.25;;;;;;;2.91;67.49;98730.16;5053354;28;20029;-75
2021/05/08 03:23:24;;;;;;;9.75;4.55;;;;;;;2.97;67.50;98733.78;5053731;28;20544;-76
2021/05/08 03:25:49;;;;;;;8.68;3.92;;;;;;;3.05;67.61;98730.72;5053204;28;20067;-76
2021/05/08 03:28:14;;;;;;;8.60;4.03;;;;;;;3.15;67.90;98737.41;5053287;28;20029;-76
2021/05/08 03:30:40;;;;;;;10.45;5.00;;;;;;;3.21;68.18;98737.25;5053308;28;20096;-76
2021/05/08 03:33:05;;;;;;;8.75;5.03;;;;;;;3.28;67.18;98742.53;5053512;28;20108;-75
2021/05/08 03:35:30;;;;;;;6.63;3.83;;;;;;;3.35;67.18;98748.63;5053312;28;20493;-76
2021/05/08 03:37:56;;;;;;;8.82;4.22;;;;;;;3.40;67.69;98748.72;5051837;28;20044;-76
2021/05/08 03:40:22;;;;;;;8.43;4.60;;;;;;;3.46;67.50;98748.84;5051737;28;20031;-76
2021/05/08 03:42:48;;;;;;;9.60;4.40;;;;;;;3.51;67.05;98752.44;5052893;28;20033;-76
2021/05/08 03:45:14;;;;;;;7.03;4.13;;;;;;;3.58;67.36;98752.31;5051775;28;20036;-76
2021/05/08 03:47:39;;;;;;;8.00;4.28;;;;;;;3.65;67.33;98754.88;5052809;28;20028;-76
2021/05/08 03:50:05;;;;;;;6.03;3.67;;;;;;;3.71;67.03;98759.34;5052872;28;20033;-76
2021/05/08 03:52:32;;;;;;;9.20;3.90;;;;;;;3.75;66.87;98762.38;5052621;28;20435;-76
2021/05/08 03:54:57;;;;;;;6.97;3.38;;;;;;;3.82;66.99;98766.59;5054127;28;20021;-76
2021/05/08 03:57:22;;;;;;;8.63;4.50;;;;;;;3.90;67.39;98761.81;5053931;28;20029;-77
2021/05/08 03:59:48;;;;;;;6.93;4.03;;;;;;;3.93;67.48;98772.19;5054102;28;20028;-76
2021/05/08 04:02:13;;;;;;;6.90;4.28;;;;;;;3.98;66.36;98764.13;5053769;28;20146;-76
2021/05/08 04:04:38;;;;;;;7.32;4.05;;;;;;;3.96;66.30;98768.97;5053903;28;20032;-76
2021/05/08 04:07:04;;;;;;;7.47;3.95;;;;;;;3.94;66.35;98774.66;5053851;28;20025;-77
2021/05/08 04:09:29;;;;;;;6.07;3.97;;;;;;;3.93;66.77;98778.44;5053704;28;20033;-77
2021/05/08 04:11:54;;;;;;;7.63;4.10;;;;;;;3.91;66.74;98780.56;5053873;28;20024;-77
2021/05/08 04:14:20;;;;;;;7.18;4.53;;;;;;;3.89;66.38;98777.28;5053760;28;20635;-77
2021/05/08 04:16:46;;;;;;;8.82;4.57;;;;;;;3.88;66.81;98790.00;5053349;28;20435;-77
2021/05/08 04:19:11;;;;;;;9.20;4.93;;;;;;;3.90;65.79;98791.66;5053778;28;20033;-76
2021/05/08 04:21:36;;;;;;;11.98;6.20;;;;;;;3.94;66.77;98792.81;5053611;28;20029;-77
2021/05/08 04:24:02;;;;;;;7.82;5.00;;;;;;;4.00;65.97;98795.41;5053266;28;20072;-76
2021/05/08 04:26:28;;;;;;;8.90;5.00;;;;;;;4.08;65.72;98798.75;5052605;28;20087;-76
2021/05/08 04:28:53;;;;;;;13.95;9.27;;;;;;;4.11;66.37;98792.84;5052841;28;20108;-76
2021/05/08 04:31:20;;;;;;;11.00;4.88;;;;;;;4.16;65.94;98798.34;5052976;28;20448;-76
2021/05/08 04:33:45;;;;;;;8.95;4.38;;;;;;;4.17;66.42;98800.84;5054225;28;20021;-76
2021/05/08 04:36:11;;;;;;;9.32;4.03;;;;;;;4.18;65.88;98796.22;5054773;28;20394;-75
2021/05/08 04:38:38;;;;;;;9.68;4.97;;;;;;;4.20;66.06;98794.09;5054441;28;20028;-75
2021/05/08 04:41:04;;;;;;;12.85;5.30;;;;;;;4.22;65.55;98799.28;5054080;28;20017;-75
2021/05/08 04:43:29;;;;;;;12.98;5.60;;;;;;;4.28;65.59;98801.84;5034355;28;20478;-75
2021/05/08 04:45:55;;;;;;;11.30;5.30;;;;;;;4.34;65.31;98810.88;5049625;28;20056;-75
2021/05/08 04:48:22;;;;;;;8.18;3.90;;;;;;;4.41;65.86;98810.72;5040818;28;20064;-75
2021/05/08 04:50:47;;;;;;;9.25;4.78;;;;;;;4.50;65.93;98816.56;5038172;28;20034;-75
2021/05/08 04:53:13;;;;;;;11.65;5.18;;;;;;;4.55;65.65;98820.16;5035193;28;20036;-75
2021/05/08 04:55:38;;;;;;;12.10;5.85;;;;;;;4.61;64.85;98829.25;5052404;28;20040;-75
2021/05/08 04:58:07;;;;;;;14.20;6.53;;;;;;;4.62;64.83;98823.53;5035394;28;20041;-75
2021/05/08 05:00:33;;;;;;;10.38;6.10;;;;;;;4.64;65.06;98823.31;5035278;28;20031;-75
2021/05/08 05:02:58;;;;;;;13.73;6.45;;;;;;;4.67;65.30;98828.25;5037567;28;20107;-75
2021/05/08 05:05:24;;;;;;;16.52;7.22;;;;;;;4.70;65.11;98826.91;5054204;28;20061;-75
2021/05/08 05:07:50;;;;;;;13.65;7.65;;;;;;;4.75;65.17;98830.53;5052608;28;20025;-75
2021/05/08 05:10:15;;;;;;;18.98;6.35;;;;;;;4.79;64.43;98824.59;5053767;28;20027;-75
2021/05/08 05:12:41;;;;;;;16.45;8.18;;;;;;;4.82;64.71;98834.97;5044953;28;20386;-75
2021/05/08 05:15:08;;;;;;;12.13;6.78;;;;;;;4.82;64.54;98832.25;5033941;28;20057;-76
2021/05/08 05:17:34;;;;;;;14.70;6.75;;;;;;;4.82;64.68;98845.84;5039825;28;20489;-76
2021/05/08 05:19:59;;;;;;;16.58;7.10;;;;;;;4.78;63.99;98845.53;5054031;28;20018;-76
2021/05/08 05:22:24;;;;;;;16.98;8.25;;;;;;;4.76;63.76;98840.31;5053764;28;20017;-76
2021/05/08 05:24:50;;;;;;;16.83;9.30;;;;;;;4.80;64.18;98842.53;5052243;28;20174;-76
2021/05/08 05:27:15;;;;;;;15.52;7.65;;;;;;;4.85;64.45;98850.78;5052038;28;20021;-76
2021/05/08 05:29:41;;;;;;;16.83;8.15;;;;;;;4.92;64.38;98859.59;5035438;28;20458;-76
2021/05/08 05:32:06;;;;;;;24.85;12.93;;;;;;;4.98;63.91;98853.16;5042277;28;20411;-76
2021/05/08 05:34:32;;;;;;;17.92;8.38;;;;;;;5.00;63.41;98858.34;5032672;28;20544;-76
2021/05/08 05:36:57;;;;;;;13.05;7.10;;;;;;;5.01;63.25;98847.22;5032116;28;20029;-76
2021/05/08 05:39:22;;;;;;;21.77;8.90;;;;;;;5.07;63.58;98848.94;5031373;28;20029;-76
2021/05/08 05:41:48;;;;;;;17.95;8.10;;;;;;;5.19;63.29;98856.16;5036553;28;20032;-76
2021/05/08 05:44:13;;;;;;;18.20;8.30;;;;;;;5.29;63.15;98855.50;5032498;28;20033;-76
2021/05/08 05:46:38;;;;;;;13.85;7.07;;;;;;;5.43;63.07;98859.47;5032147;28;20108;-76
2021/05/08 05:49:04;;;;;;;15.60;7.18;;;;;;;5.61;62.82;98857.53;5032118;28;20025;-76
2021/05/08 05:51:29;;;;;;;13.10;5.78;;;;;;;5.82;63.33;98859.38;5036175;28;20443;-76
2021/05/08 05:53:57;;;;;;;10.95;4.97;;;;;;;6.04;62.96;98857.75;5053083;28;20437;-76
2021/05/08 05:56:24;;;;;;;11.35;6.20;;;;;;;6.22;62.10;98865.56;5052583;28;20028;-76
2021/05/08 05:58:50;;;;;;;15.00;6.18;;;;;;;6.39;61.86;98861.88;5053457;28;20033;-77
2021/05/08 06:01:15;;;;;;;12.10;5.63;;;;;;;6.55;61.23;98863.66;5051019;28;20039;-76
2021/05/08 06:03:40;;;;;;;9.95;4.70;;;;;;;6.61;58.54;98866.44;5050250;28;20025;-76
2021/05/08 06:06:06;;;;;;;10.40;4.80;;;;;;;6.59;59.02;98863.16;5053032;28;20032;-76
2021/05/08 06:08:31;;;;;;;11.13;6.05;;;;;;;6.61;59.93;98858.25;5053082;28;20079;-75
2021/05/08 06:10:56;;;;;;;16.55;6.05;;;;;;;6.64;59.37;98869.47;5051674;28;20029;-75
2021/05/08 06:13:23;;;;;;;15.35;5.93;;;;;;;6.63;59.24;98873.25;5057223;28;20032;-76
2021/05/08 06:15:48;;;;;;;13.77;5.97;;;;;;;6.61;59.10;98874.63;5072631;28;20381;-76
2021/05/08 06:18:14;;;;;;;12.57;5.30;;;;;;;6.58;58.68;98872.41;5059580;28;20053;-76
2021/05/08 06:20:39;;;;;;;9.40;5.38;;;;;;;6.56;59.30;98867.19;5051869;28;20060;-76
2021/05/08 06:23:05;;;;;;;15.80;7.00;;;;;;;6.59;59.43;98868.59;5036017;28;20025;-76
2021/05/08 06:25:30;;;;;;;11.43;5.05;;;;;;;6.62;58.91;98877.06;5051101;28;20029;-76
2021/05/08 06:27:55;;;;;;;13.35;5.43;;;;;;;6.69;58.98;98871.41;5051005;28;20571;-76
2021/05/08 06:30:21;;;;;;;8.02;4.60;;;;;;;6.69;57.60;98876.88;5039310;28;20030;-76
2021/05/08 06:32:47;;;;;;;9.93;4.45;;;;;;;6.69;57.57;98874.16;5032351;28;20029;-76
2021/05/08 06:35:12;;;;;;;8.02;4.93;;;;;;;6.74;58.21;98879.63;5032331;28;20029;-76
2021/05/08 06:37:38;;;;;;;7.95;4.25;;;;;;;6.72;57.57;98879.09;5049101;28;20092;-76
2021/05/08 06:40:05;;;;;;;7.32;4.72;;;;;;;6.75;58.14;98883.19;5051682;28;20170;-76
2021/05/08 06:42:31;;;;;;;10.93;6.85;;;;;;;6.76;57.79;98882.91;5046644;28;20420;-76
2021/05/08 06:44:56;;;;;;;9.00;4.75;;;;;;;6.80;58.17;98875.03;5037382;28;20114;-76
2021/05/08 06:47:22;;;;;;;8.05;4.40;;;;;;;6.86;58.25;98879.47;5045873;28;20072;-76
2021/05/08 06:49:47;;;;;;;6.70;3.60;;;;;;;6.89;58.22;98884.38;5031814;28;20359;-76
2021/05/08 06:52:12;;;;;;;7.15;4.07;;;;;;;6.89;58.02;98878.09;5032247;28;20550;-76
2021/05/08 06:54:38;;;;;;;10.88;5.55;;;;;;;6.92;58.12;98886.59;5032028;28;20029;-76
2021/05/08 06:57:05;;;;;;;9.35;5.30;;;;;;;7.02;58.18;98876.81;5046666;28;20035;-76
2021/05/08 06:59:30;;;;;;;7.90;4.18;;;;;;;7.13;57.69;98878.53;5051616;28;20029;-77
2021/05/08 07:01:56;;;;;;;8.27;4.28;;;;;;;7.20;57.46;98881.84;5051022;28;20071;-76
2021/05/08 07:04:21;;;;;;;8.32;4.30;;;;;;;7.29;57.87;98883.00;5043533;28;20079;-76
2021/05/08 07:06:47;;;;;;;8.32;4.57;;;;;;;7.44;57.70;98881.44;5042353;28;20044;-76
2021/05/08 07:09:12;;;;;;;8.85;4.88;;;;;;;7.48;56.49;98877.09;5032158;28;20029;-77
2021/05/08 07:11:37;;;;;;;8.02;4.45;;;;;;;7.53;56.34;98881.78;5033157;28;20116;-77
2021/05/08 07:14:03;;;;;;;8.80;4.30;;;;;;;7.60;56.44;98872.25;5050180;28;20124;-77
2021/05/08 07:16:28;;;;;;;7.35;4.65;;;;;;;7.74;57.04;98877.22;5049947;28;20060;-76
2021/05/08 07:18:54;;;;;;;9.82;4.40;;;;;;;7.78;56.04;98877.50;5043673;28;20025;-77
2021/05/08 07:21:19;;;;;;;7.53;4.50;;;;;;;7.82;55.93;98875.88;5038214;28;20032;-77
2021/05/08 07:23:45;;;;;;;8.70;3.88;;;;;;;7.88;56.04;98866.63;5051811;28;20024;-76
2021/05/08 07:26:11;;;;;;;7.75;4.60;;;;;;;7.93;55.88;98863.91;5051488;28;20075;-76
2021/05/08 07:28:36;;;;;;;8.70;4.80;;;;;;;7.95;55.31;98863.63;5041320;28;20025;-76
2021/05/08 07:31:03;;;;;;;8.07;4.38;;;;;;;7.98;55.56;98869.34;5043704;28;20022;-76
2021/05/08 07:33:28;;;;;;;5.32;3.90;;;;;;;8.03;55.16;98871.28;5046773;28;20762;-77
2021/05/08 07:35:53;;;;;;;11.70;5.82;;;;;;;8.10;54.53;98871.03;5051832;28;20051;-76
2021/05/08 07:38:19;;;;;;;11.32;5.65;;;;;;;8.25;55.55;98865.59;5044943;28;20022;-76
2021/05/08 07:40:48;;;;;;;12.75;5.63;;;;;;;8.34;54.90;98866.72;5031922;28;20056;-75
2021/05/08 07:43:16;;;;;;;7.13;3.90;;;;;;;8.39;54.36;98870.53;5031844;28;20496;-76
2021/05/08 07:45:41;;;;;;;9.32;4.53;;;;;;;8.34;53.58;98868.63;5031963;28;20026;-78
2021/05/08 07:48:06;;;;;;;10.05;5.18;;;;;;;8.34;53.53;98872.19;5036858;28;20048;-77
2021/05/08 07:50:32;;;;;;;11.75;6.22;;;;;;;8.52;54.03;98878.22;5051858;28;20024;-77
2021/05/08 07:52:57;;;;;;;41.50;14.80;;;;;;;8.73;53.65;98880.97;5051599;28;20111;-76
2021/05/08 07:55:24;;;;;;;9.55;5.05;;;;;;;8.90;52.72;98880.69;5049624;28;20033;-77
2021/05/08 07:57:50;;;;;;;7.30;4.20;;;;;;;8.92;51.88;98870.31;5048425;28;20052;-77
2021/05/08 08:00:18;;;;;;;9.65;4.80;;;;;;;8.86;51.76;98882.34;5045434;28;20029;-76
2021/05/08 08:02:44;;;;;;;9.30;6.78;;;;;;;8.90;52.38;98875.22;5034762;28;20025;-76
2021/05/08 08:05:10;;;;;;;7.75;5.50;;;;;;;8.99;52.45;98873.56;5043588;28;20036;-76
2021/05/08 08:07:35;;;;;;;7.30;4.47;;;;;;;9.13;52.94;98868.38;5055110;28;20379;-77
2021/05/08 08:10:01;;;;;;;7.20;4.10;;;;;;;9.24;52.08;98860.94;5055028;28;20021;-76
2021/05/08 08:12:26;;;;;;;13.85;6.50;;;;;;;9.25;52.13;98859.84;5054598;28;20025;-77
2021/05/08 08:14:51;;;;;;;6.97;4.40;;;;;;;9.27;52.19;98859.56;5052965;28;20032;-76
2021/05/08 08:17:18;;;;;;;8.38;4.90;;;;;;;9.33;52.73;98858.44;5034607;28;20049;-77
2021/05/08 08:19:48;;;;;;;8.50;4.80;;;;;;;9.29;50.90;98858.19;5034901;28;20037;-77
2021/05/08 08:22:16;;;;;;;8.48;5.32;;;;;;;9.22;51.26;98869.41;5036421;28;20064;-77
2021/05/08 08:24:43;;;;;;;9.05;4.70;;;;;;;9.17;51.67;98877.63;5052614;28;20074;-76
2021/05/08 08:27:09;;;;;;;6.85;4.15;;;;;;;9.08;51.37;98879.31;5054200;28;20516;-77
2021/05/08 08:29:35;;;;;;;6.70;4.13;;;;;;;8.94;50.55;98888.06;5049446;28;20024;-77
2021/05/08 08:32:00;;;;;;;6.53;4.43;;;;;;;8.77;51.34;98893.00;5038532;28;20018;-76
2021/05/08 08:34:25;;;;;;;11.18;5.47;;;;;;;8.69;51.74;98888.91;5036490;28;20021;-76
2021/05/08 08:36:51;;;;;;;10.15;6.25;;;;;;;8.74;52.23;98899.03;5036734;28;20029;-77
2021/05/08 08:39:16;;;;;;;10.20;6.20;;;;;;;8.78;52.59;98903.69;5053325;28;20454;-76
2021/05/08 08:41:42;;;;;;;11.13;6.70;;;;;;;8.80;53.13;98900.66;5054433;28;20035;-76
2021/05/08 08:44:10;;;;;;;8.93;5.30;;;;;;;8.90;53.68;98906.13;5054491;28;20035;-76
2021/05/08 08:46:43;;;;;;;10.63;5.00;;;;;;;8.96;53.29;98904.22;5054334;28;20029;-76
2021/05/08 08:49:10;;;;;;;7.65;4.30;;;;;;;9.05;52.87;98896.28;5053957;28;20408;-76
2021/05/08 08:51:36;;;;;;;5.45;3.25;;;;;;;9.23;53.42;98901.16;5054402;28;20104;-77
2021/05/08 08:54:02;;;;;;;6.60;3.53;;;;;;;9.39;53.74;98887.44;5054381;28;20123;-76
2021/05/08 08:56:34;;;;;;;5.35;2.97;;;;;;;9.51;49.50;98889.88;5054809;28;20111;-76
2021/05/08 08:59:11;;;;;;;8.82;4.15;;;;;;;9.58;49.98;98884.13;5054231;28;20031;-76
2021/05/08 09:01:37;;;;;;;7.85;3.78;;;;;;;9.61;48.19;98891.75;5054381;28;20025;-78
2021/05/08 09:04:02;;;;;;;6.10;3.53;;;;;;;9.54;48.00;98883.84;5035225;28;20063;-76
2021/05/08 09:06:28;;;;;;;10.45;4.93;;;;;;;9.48;48.67;98898.66;5034219;28;20046;-76
2021/05/08 09:08:56;;;;;;;11.43;5.53;;;;;;;9.43;49.08;98896.75;5030789;28;20097;-75
2021/05/08 09:11:24;;;;;;;25.98;9.55;;;;;;;9.41;48.92;98900.84;5029790;28;20026;-75
2021/05/08 09:14:20;;;;;;;9.40;5.05;;;;;;;9.35;48.72;98894.56;5034051;28;20029;-75
2021/05/08 09:17:07;;;;;;;13.45;8.35;;;;;;;9.36;48.03;98901.69;5030484;28;20041;-75
2021/05/08 09:19:34;;;;;;;9.90;4.57;;;;;;;9.51;48.45;98898.94;5025998;28;20029;-75
2021/05/08 09:22:21;;;;;;;14.88;6.05;;;;;;;9.85;47.24;98897.41;5027277;28;20033;-75
2021/05/08 09:25:00;;;;;;;5.57;3.60;;;;;;;10.13;44.31;98890.44;5021848;28;20087;-74
2021/05/08 09:27:34;;;;;;;5.00;2.75;;;;;;;10.37;44.22;98892.50;5017364;28;20025;-74
2021/05/08 09:30:13;;;;;;;6.18;4.20;;;;;;;10.52;41.76;98879.81;5019246;28;20017;-76
2021/05/08 09:32:43;;;;;;;12.45;6.15;;;;;;;10.65;42.39;98883.81;5026142;28;20029;-76
2021/05/08 09:35:11;;;;;;;11.73;4.65;;;;;;;10.69;43.21;98885.72;5024887;28;20056;-76
2021/05/08 09:37:37;;;;;;;6.93;4.80;;;;;;;10.77;41.50;98895.25;5025550;28;20021;-75
2021/05/08 09:40:32;;;;;;;5.70;3.55;;;;;;;10.88;43.12;98890.47;5027272;28;20091;-76
2021/05/08 09:42:59;;;;;;;6.45;3.47;;;;;;;11.05;43.04;98892.00;5029625;28;20255;-77
2021/05/08 09:45:26;;;;;;;4.82;3.60;;;;;;;11.26;41.52;98898.09;5023541;28;20013;-76
2021/05/08 09:47:53;;;;;;;9.30;4.32;;;;;;;11.38;39.22;98893.03;5015258;28;20732;-77
2021/05/08 09:50:24;;;;;;;6.13;4.13;;;;;;;11.57;41.25;98886.78;5015839;28;20707;-76
2021/05/08 09:52:55;;;;;;;6.20;3.28;;;;;;;11.65;40.98;98891.66;5023256;28;20018;-77
2021/05/08 09:55:23;;;;;;;7.80;3.45;;;;;;;11.53;38.12;98889.31;5044284;28;20064;-76
2021/05/08 09:58:05;;;;;;;6.35;3.28;;;;;;;11.33;39.10;98893.09;5044502;28;20541;-77
2021/05/08 10:00:33;;;;;;;4.07;2.60;;;;;;;11.18;39.08;98894.06;5044035;28;20063;-77
2021/05/08 10:03:10;;;;;;;6.00;2.83;;;;;;;11.08;38.05;98888.69;5044281;28;20117;-77
2021/05/08 10:05:37;;;;;;;3.92;2.42;;;;;;;11.05;38.02;98883.75;5044401;28;20408;-75
2021/05/08 10:08:04;;;;;;;7.97;4.95;;;;;;;10.98;38.49;98884.91;5032012;28;20104;-75
2021/05/08 10:10:30;;;;;;;11.75;7.30;;;;;;;11.12;38.86;98882.31;5016151;28;20434;-75
2021/05/08 10:12:56;;;;;;;9.23;6.13;;;;;;;11.40;40.57;98876.25;5020515;28;20032;-75
2021/05/08 10:15:22;;;;;;;6.97;3.47;;;;;;;11.65;39.72;98877.91;5025352;28;20029;-75
2021/05/08 10:17:49;;;;;;;5.57;3.10;;;;;;;11.74;38.90;98869.81;5025843;28;20033;-76
2021/05/08 10:20:17;;;;;;;5.47;2.88;;;;;;;11.67;38.06;98877.59;5025310;28;20036;-75
2021/05/08 10:23:05;;;;;;;9.23;4.30;;;;;;;11.58;37.30;98882.94;5025123;28;20025;-76
2021/05/08 10:25:31;;;;;;;2.53;1.92;;;;;;;11.37;35.74;98888.66;5024546;28;20043;-74
2021/05/08 10:27:57;;;;;;;5.80;3.28;;;;;;;11.20;36.88;98888.28;5022429;28;20108;-76
2021/05/08 10:30:37;;;;;;;8.52;4.95;;;;;;;11.09;38.26;98891.13;5015941;28;20685;-77
2021/05/08 10:33:09;;;;;;;13.60;5.75;;;;;;;10.99;36.69;98885.75;5018376;28;20041;-75
2021/05/08 10:35:39;;;;;;;8.77;4.07;;;;;;;10.96;38.04;98886.31;5024237;28;20466;-75
2021/05/08 10:38:23;;;;;;;4.20;2.60;;;;;;;11.01;37.86;98884.34;5025329;28;20581;-75
2021/05/08 10:40:53;;;;;;;9.15;3.70;;;;;;;11.16;36.93;98880.63;5025263;28;20912;-75
2021/05/08 10:44:02;;;;;;;5.53;2.67;;;;;;;11.44;38.16;98877.31;5023674;28;20124;-75
2021/05/08 10:46:28;;;;;;;4.35;3.10;;;;;;;11.73;36.51;98879.19;5024915;28;20398;-76
2021/05/08 10:49:09;;;;;;;4.82;3.08;;;;;;;11.98;37.79;98872.53;5022341;28;20040;-76
2021/05/08 10:51:53;;;;;;;5.00;2.20;;;;;;;12.08;36.70;98863.34;5017191;28;20018;-76
2021/05/08 10:54:43;;;;;;;5.50;2.88;;;;;;;12.23;33.78;98883.50;5019461;28;20037;-76
2021/05/08 10:57:25;;;;;;;4.70;2.00;;;;;;;12.09;33.79;98873.25;5025668;28;20547;-76
2021/05/08 11:00:07;;;;;;;3.38;2.10;;;;;;;11.90;31.75;98882.28;5024576;28;20033;-76
2021/05/08 11:02:45;;;;;;;3.38;2.15;;;;;;;11.91;32.23;98881.16;5025035;28;20064;-75
2021/05/08 11:05:22;;;;;;;4.65;2.33;;;;;;;12.00;32.55;98869.53;5021490;28;20046;-76
2021/05/08 11:07:48;;;;;;;3.80;2.05;;;;;;;12.12;31.92;98869.91;5058736;28;20036;-76
2021/05/08 11:10:34;;;;;;;3.13;1.98;;;;;;;12.35;32.52;98861.91;5018848;28;20034;-77
2021/05/08 11:13:10;;;;;;;10.18;4.85;;;;;;;12.68;34.04;98861.94;5015406;28;20029;-77
2021/05/08 11:21:21;;;;;;;4.38;2.88;;;;;;;12.77;32.00;98864.81;5025522;28;20475;-76
2021/05/08 11:23:49;;;;;;;;;;;;;;;12.74;32.91;98874.50;5023843;28;20030;-76
2021/05/08 11:26:20;;;;;;;4.50;2.80;;;;;;;12.65;32.73;98865.28;5025020;28;20000;-77
2021/05/08 11:29:11;;;;;;;6.38;2.88;;;;;;;12.63;32.45;98860.06;5023420;28;20034;-76
2021/05/08 11:31:43;;;;;;;5.85;4.75;;;;;;;12.64;32.61;98853.44;5017842;28;20086;-76
2021/05/08 11:34:19;;;;;;;6.78;4.25;;;;;;;12.75;33.55;98853.28;5014978;28;20797;-76
2021/05/08 11:37:16;;;;;;;5.70;3.42;;;;;;;12.78;31.39;98860.94;5050766;28;20382;-76
2021/05/08 11:39:43;;;;;;;6.55;5.10;;;;;;;12.66;32.17;98858.66;5025847;28;20068;-77
2021/05/08 11:42:19;;;;;;;5.72;3.83;;;;;;;12.61;32.47;98861.47;5040904;28;20152;-76
2021/05/08 11:44:46;;;;;;;8.82;6.03;;;;;;;12.63;33.25;98854.56;5028463;28;20029;-77